Terminal Aerodrome Forecast
Issued by NWS

Home | Current Version | Previous Version | Graphics & Text | Print | Product List | Glossary On
Versions: 1 2 3 4 5 6 7 8 9 10 11 12 13 14 15 16 17 18 19
000
FTUS43 KBIS 190800 AAA
TAFJMS
TAF AMD
KJMS 190828Z 1908/2006 30003KT P6SM SKC
      TEMPO 1910/1913 1SM BR
     FM191300 29005KT P6SM FEW060=

USA.gov is the U.S. government's official web portal to all federal, state and local government web resources and services.